Palminopolis, Brazil
Current Conditions -  °F | °C
As of 11:00 PM on Friday 24 Oct 2014 (Local Time) from SBGO Reporting Station
Broken Clouds Broken Clouds  
Wind Chill: 73°   Ceiling: 10000
Heat Index: 73°   Visibility: 6mi
Dew Point: 64°   Wind: 5mph
Humidity: 73%   Direction: 130°SE
Pressure: 29.97"   Gusts: NA
Location:  16.8°S, 50.16°W
Report Text: SBGO 250100Z 13004KT 9999 FEW040 BKN100 23/18 Q1015
Loading
Personal Weather Stations






























Interactive Weather Map
Tropical Storm Tracking
New forecast layout! Learn more

10-Day Weather Forecast

Advertisements
Track Severe Weather on mobile